Time;durP1;ratioP1;P1;durP2;ratioP2;P2;SDS_P1;SDS_P2;PMS_P1;PMS_P2;Temp;Humidity;BMP_temperature;BMP_pressure;BME280_temperature;BME280_humidity;BME280_pressure;Samples;Min_cycle;Max_cycle;Signal;HPM_P1;HPM_P2
2022/04/10 00:01:15;;;;;;;9.52;2.78;;;5.60;71.20;;;;;;4899433;29;20112;-85
2022/04/10 00:03:42;;;;;;;9.35;3.20;;;5.60;71.30;;;;;;4892249;29;20544;-85
2022/04/10 00:06:09;;;;;;;9.75;3.13;;;5.50;71.40;;;;;;4888451;29;20048;-85
2022/04/10 00:08:36;;;;;;;10.68;3.60;;;5.50;71.40;;;;;;4886674;29;20049;-86
2022/04/10 00:11:03;;;;;;;10.95;3.20;;;5.50;71.50;;;;;;4883612;29;20533;-85
2022/04/10 00:13:30;;;;;;;8.00;2.92;;;5.50;71.60;;;;;;4886465;29;20128;-85
2022/04/10 00:15:57;;;;;;;11.38;2.80;;;5.50;71.70;;;;;;4888224;29;20622;-86
2022/04/10 00:18:24;;;;;;;10.30;2.95;;;5.50;71.70;;;;;;4888235;29;20057;-85
2022/04/10 00:20:51;;;;;;;8.98;2.97;;;5.50;71.80;;;;;;4888267;29;20128;-84
2022/04/10 00:23:19;;;;;;;9.82;3.17;;;5.50;71.80;;;;;;4884225;29;20056;-85
2022/04/10 00:25:46;;;;;;;13.15;2.70;;;5.50;71.90;;;;;;4884141;29;20570;-85
2022/04/10 00:28:13;;;;;;;8.52;2.83;;;5.40;71.90;;;;;;4888174;29;20060;-85
2022/04/10 00:30:39;;;;;;;10.23;3.15;;;5.40;72.00;;;;;;4887877;29;20052;-85
2022/04/10 00:33:06;;;;;;;12.32;3.05;;;5.40;72.00;;;;;;4887885;29;20056;-86
2022/04/10 00:35:33;;;;;;;9.77;2.90;;;5.40;72.10;;;;;;4885064;29;20096;-85
2022/04/10 00:38:01;;;;;;;10.20;2.72;;;5.40;72.10;;;;;;4883559;29;20057;-85
2022/04/10 00:40:28;;;;;;;10.82;3.15;;;5.40;72.10;;;;;;4884054;29;20053;-86
2022/04/10 00:42:55;;;;;;;8.98;2.83;;;5.40;72.20;;;;;;4887744;29;20108;-84
2022/04/10 00:45:21;;;;;;;6.95;2.70;;;5.40;72.20;;;;;;4887596;29;20069;-85
2022/04/10 00:47:48;;;;;;;9.32;3.28;;;5.40;72.30;;;;;;4887518;29;20057;-85
2022/04/10 00:50:19;;;;;;;11.68;3.25;;;5.40;72.30;;;;;;4883224;29;20474;-84
2022/04/10 00:52:48;;;;;;;7.45;2.80;;;5.40;72.30;;;;;;4895029;29;20574;-85
2022/04/10 00:55:16;;;;;;;8.25;3.45;;;5.40;72.40;;;;;;4897934;29;20064;-85
2022/04/10 00:57:46;;;;;;;10.63;3.08;;;5.40;72.40;;;;;;4891177;29;20157;-85
2022/04/10 01:00:14;;;;;;;9.32;2.95;;;5.40;72.40;;;;;;4887439;29;20105;-85
2022/04/10 01:02:42;;;;;;;7.85;2.78;;;5.40;72.40;;;;;;4886335;29;20049;-85
2022/04/10 01:05:09;;;;;;;8.32;3.22;;;5.30;72.50;;;;;;4882933;29;20056;-86
2022/04/10 01:07:36;;;;;;;11.38;2.85;;;5.30;72.50;;;;;;4884828;29;20090;-86
2022/04/10 01:10:06;;;;;;;6.03;2.53;;;5.30;72.50;;;;;;4896437;29;20063;-86
2022/04/10 01:12:34;;;;;;;8.13;2.83;;;5.30;72.60;;;;;;4891961;29;20061;-85
2022/04/10 01:15:04;;;;;;;7.07;2.47;;;5.30;72.60;;;;;;4887083;29;20418;-85
2022/04/10 01:17:31;;;;;;;8.35;3.30;;;5.20;72.60;;;;;;4884785;29;20045;-85
2022/04/10 01:19:58;;;;;;;6.88;2.75;;;5.30;72.70;;;;;;4882833;29;20057;-84
2022/04/10 01:22:33;;;;;;;9.15;2.90;;;5.20;72.70;;;;;;4885409;29;20053;-85
2022/04/10 01:25:04;;;;;;;8.82;2.95;;;5.20;72.70;;;;;;4886994;29;20068;-85
2022/04/10 01:27:39;;;;;;;10.75;3.30;;;5.20;72.80;;;;;;4886932;29;20471;-85
2022/04/10 01:30:07;;;;;;;;;;;5.20;72.80;;;;;;4887403;29;20044;-84
2022/04/10 01:32:34;;;;;;;8.90;2.75;;;5.20;72.80;;;;;;4884853;29;19979;-85
2022/04/10 01:35:02;;;;;;;9.05;3.10;;;5.20;72.90;;;;;;4882414;29;20053;-86
2022/04/10 01:37:31;;;;;;;9.20;3.17;;;5.10;72.90;;;;;;4883189;29;20101;-84
2022/04/10 01:39:58;;;;;;;7.53;2.90;;;5.10;72.90;;;;;;4886879;29;20057;-86
2022/04/10 01:42:25;;;;;;;10.45;3.20;;;5.00;72.90;;;;;;4886668;29;20048;-85
2022/04/10 01:44:52;;;;;;;7.25;3.10;;;5.10;73.00;;;;;;4886621;29;20059;-85
2022/04/10 01:47:19;;;;;;;8.43;3.60;;;5.00;73.00;;;;;;4882699;29;20048;-85
2022/04/10 01:49:46;;;;;;;10.02;3.30;;;5.00;73.00;;;;;;4882915;29;20570;-85
2022/04/10 01:52:13;;;;;;;10.55;3.38;;;5.00;73.00;;;;;;4896862;29;20048;-85
2022/04/10 01:54:39;;;;;;;8.68;3.65;;;5.00;73.00;;;;;;4890564;29;20101;-85
2022/04/10 01:57:08;;;;;;;10.85;3.33;;;5.00;73.00;;;;;;4886428;29;20048;-85
2022/04/10 01:59:35;;;;;;;11.43;3.70;;;4.90;73.10;;;;;;4884638;29;20049;-84
2022/04/10 02:02:02;;;;;;;7.45;3.13;;;4.90;73.10;;;;;;4882024;29;20097;-85
2022/04/10 02:04:29;;;;;;;11.38;3.15;;;4.90;73.10;;;;;;4883061;29;20438;-84
2022/04/10 02:06:56;;;;;;;8.43;3.35;;;4.90;73.20;;;;;;4886051;29;20056;-84
2022/04/10 02:09:23;;;;;;;9.02;3.58;;;4.80;73.20;;;;;;4886497;29;20056;-85
2022/04/10 02:11:50;;;;;;;9.82;3.13;;;4.80;73.30;;;;;;4886142;29;20048;-85
2022/04/10 02:14:18;;;;;;;9.77;3.60;;;4.80;73.30;;;;;;4882125;29;20049;-85
2022/04/10 02:16:45;;;;;;;10.25;3.00;;;4.80;73.40;;;;;;4893593;29;20104;-84
2022/04/10 02:19:12;;;;;;;9.15;3.10;;;4.80;73.40;;;;;;4886197;29;20426;-85
2022/04/10 02:21:38;;;;;;;7.80;3.20;;;4.70;73.40;;;;;;4885785;29;20053;-84
2022/04/10 02:24:06;;;;;;;12.32;3.33;;;4.80;73.50;;;;;;4888034;29;20418;-85
2022/04/10 02:26:32;;;;;;;8.90;3.10;;;4.70;73.50;;;;;;4896748;29;20093;-85
2022/04/10 02:29:00;;;;;;;9.20;3.25;;;4.70;73.60;;;;;;4881761;29;20057;-85
2022/04/10 02:31:27;;;;;;;9.35;3.42;;;4.70;73.60;;;;;;4884722;29;20082;-85
2022/04/10 02:33:54;;;;;;;14.68;3.53;;;4.70;73.70;;;;;;4885913;29;20057;-85
2022/04/10 02:36:22;;;;;;;7.43;3.22;;;4.70;73.70;;;;;;4885724;29;20104;-85
2022/04/10 02:38:49;;;;;;;7.30;3.25;;;4.60;73.70;;;;;;4885913;29;20048;-86
2022/04/10 02:41:20;;;;;;;12.38;3.72;;;4.60;73.80;;;;;;4882260;29;20099;-86
2022/04/10 02:43:47;;;;;;;9.30;3.40;;;4.50;73.80;;;;;;4882258;29;20057;-85
2022/04/10 02:46:14;;;;;;;9.80;3.47;;;4.50;73.90;;;;;;4896622;29;20048;-85
2022/04/10 02:48:41;;;;;;;6.22;3.25;;;4.50;73.90;;;;;;4890038;29;20053;-85
2022/04/10 02:51:08;;;;;;;10.52;3.97;;;4.50;74.00;;;;;;4885564;29;20494;-85
2022/04/10 02:53:35;;;;;;;9.95;3.35;;;4.50;74.00;;;;;;4883972;29;20056;-84
2022/04/10 02:56:02;;;;;;;9.95;3.47;;;4.50;74.10;;;;;;4881516;29;20049;-85
2022/04/10 02:58:29;;;;;;;10.30;3.70;;;4.50;74.10;;;;;;4884339;29;20472;-84
2022/04/10 03:00:56;;;;;;;9.18;3.97;;;4.50;74.10;;;;;;4889556;29;20049;-85
2022/04/10 03:03:23;;;;;;;11.98;3.65;;;4.50;74.20;;;;;;4889628;29;20049;-85
2022/04/10 03:05:50;;;;;;;11.93;3.70;;;4.40;74.20;;;;;;4889100;29;20045;-85
2022/04/10 03:08:19;;;;;;;10.93;4.03;;;4.50;74.30;;;;;;4885357;29;20459;-85
2022/04/10 03:10:46;;;;;;;7.88;3.25;;;4.40;74.30;;;;;;4896871;29;20059;-85
2022/04/10 03:13:14;;;;;;;10.45;3.60;;;4.40;74.40;;;;;;4899422;29;20470;-85
2022/04/10 03:15:41;;;;;;;8.32;3.60;;;4.40;74.40;;;;;;4893371;29;20053;-85
2022/04/10 03:18:08;;;;;;;8.43;3.58;;;4.40;74.50;;;;;;4889272;29;20524;-85
2022/04/10 03:20:35;;;;;;;7.57;3.22;;;4.40;74.50;;;;;;4886988;29;20059;-84
2022/04/10 03:23:08;;;;;;;10.68;3.60;;;4.40;74.50;;;;;;4884810;29;20097;-85
2022/04/10 03:25:35;;;;;;;10.52;3.90;;;4.40;74.50;;;;;;4885752;29;20117;-85
2022/04/10 03:28:03;;;;;;;9.00;3.50;;;4.40;74.60;;;;;;4889173;29;20053;-84
2022/04/10 03:30:30;;;;;;;10.98;4.05;;;4.40;74.60;;;;;;4889075;29;20057;-85
2022/04/10 03:32:57;;;;;;;11.02;3.88;;;4.30;74.60;;;;;;4888732;29;20040;-84
2022/04/10 03:35:24;;;;;;;9.50;3.53;;;4.40;74.60;;;;;;4885606;29;20096;-84
2022/04/10 03:37:51;;;;;;;11.32;3.85;;;4.30;74.70;;;;;;4884743;29;20049;-85
2022/04/10 03:40:17;;;;;;;11.50;4.10;;;4.30;74.70;;;;;;4887576;29;20057;-85
2022/04/10 03:42:48;;;;;;;8.77;3.72;;;4.30;74.70;;;;;;4888877;29;20052;-85
2022/04/10 03:45:15;;;;;;;9.40;3.55;;;4.30;74.70;;;;;;4888590;29;20576;-85
2022/04/10 03:47:42;;;;;;;10.23;3.80;;;4.30;74.80;;;;;;4887389;29;20067;-85
2022/04/10 03:50:09;;;;;;;11.57;3.67;;;4.30;74.80;;;;;;4884474;29;20112;-85
2022/04/10 03:52:36;;;;;;;10.68;3.95;;;4.20;74.80;;;;;;4899973;29;20079;-84
2022/04/10 03:55:03;;;;;;;9.55;3.40;;;4.30;74.80;;;;;;4889708;29;20147;-84
2022/04/10 03:57:30;;;;;;;10.32;3.97;;;4.30;74.80;;;;;;4888533;29;20513;-85
2022/04/10 03:59:57;;;;;;;13.15;3.88;;;4.30;74.80;;;;;;4888602;29;20100;-85
2022/04/10 04:02:24;;;;;;;8.05;3.58;;;4.20;74.80;;;;;;4885067;29;20484;-84
2022/04/10 04:04:52;;;;;;;8.32;3.35;;;4.30;74.80;;;;;;4884343;29;20067;-85
2022/04/10 04:07:18;;;;;;;10.88;3.50;;;4.20;74.80;;;;;;4888016;29;20057;-84
2022/04/10 04:09:45;;;;;;;8.35;3.83;;;4.30;74.80;;;;;;4886020;29;20518;-85
2022/04/10 04:12:12;;;;;;;9.05;3.28;;;4.20;74.80;;;;;;4888220;29;20053;-85
2022/04/10 04:14:40;;;;;;;8.55;3.58;;;4.30;74.80;;;;;;4886807;29;20437;-84
2022/04/10 04:17:07;;;;;;;11.07;3.53;;;4.20;74.80;;;;;;4883498;29;20045;-84
2022/04/10 04:19:34;;;;;;;9.73;3.75;;;4.20;74.80;;;;;;4886095;29;20053;-85
2022/04/10 04:22:01;;;;;;;8.00;3.10;;;4.20;74.80;;;;;;4888080;29;20052;-84
2022/04/10 04:24:28;;;;;;;8.00;3.50;;;4.20;74.80;;;;;;4888048;29;20104;-85
2022/04/10 04:26:55;;;;;;;12.68;3.67;;;4.20;74.80;;;;;;4888084;29;20097;-84
2022/04/10 04:29:22;;;;;;;11.10;3.45;;;4.20;74.80;;;;;;4884466;29;20565;-84
2022/04/10 04:31:49;;;;;;;9.30;4.28;;;4.10;74.80;;;;;;4883549;29;20048;-84
2022/04/10 04:34:16;;;;;;;11.80;3.90;;;4.10;74.80;;;;;;4887692;29;20052;-84
2022/04/10 04:36:43;;;;;;;9.32;3.72;;;4.10;74.80;;;;;;4887919;29;20051;-85
2022/04/10 04:39:10;;;;;;;11.85;3.92;;;4.10;74.80;;;;;;4887845;29;20060;-85
2022/04/10 04:41:37;;;;;;;7.70;3.40;;;4.00;74.80;;;;;;4886192;29;20430;-85
2022/04/10 04:44:04;;;;;;;10.02;3.67;;;4.00;74.80;;;;;;4883365;29;20056;-85
2022/04/10 04:46:31;;;;;;;10.13;3.90;;;4.00;74.90;;;;;;4885623;29;20521;-85
2022/04/10 04:48:58;;;;;;;8.32;3.83;;;4.00;74.90;;;;;;4887848;29;20136;-85
2022/04/10 04:51:25;;;;;;;11.38;3.80;;;3.90;74.90;;;;;;4887646;29;20575;-85
2022/04/10 04:53:52;;;;;;;12.85;3.78;;;3.90;75.00;;;;;;4887390;29;20506;-85
2022/04/10 04:56:19;;;;;;;10.02;4.05;;;3.90;75.00;;;;;;4883627;29;20375;-85
2022/04/10 04:58:49;;;;;;;9.68;3.97;;;3.90;75.10;;;;;;4883979;29;20049;-84
2022/04/10 05:01:16;;;;;;;10.80;3.95;;;3.90;75.10;;;;;;4886635;29;20057;-85
2022/04/10 05:03:43;;;;;;;11.13;4.30;;;3.90;75.10;;;;;;4887236;29;20570;-84
2022/04/10 05:06:10;;;;;;;10.15;4.35;;;3.90;75.20;;;;;;4887472;29;20048;-84
2022/04/10 05:08:39;;;;;;;12.73;4.57;;;3.90;75.20;;;;;;4885728;29;20100;-85
2022/04/10 05:11:09;;;;;;;7.25;3.63;;;3.90;75.30;;;;;;4882963;29;20049;-84
2022/04/10 05:13:35;;;;;;;11.55;4.22;;;3.90;75.30;;;;;;4884776;29;20064;-85
2022/04/10 05:16:03;;;;;;;7.35;4.13;;;3.80;75.40;;;;;;4886999;29;20515;-85
2022/04/10 05:18:34;;;;;;;10.15;3.97;;;3.80;75.40;;;;;;4887209;29;20055;-85
2022/04/10 05:21:02;;;;;;;10.32;4.10;;;3.80;75.50;;;;;;4887129;29;20112;-85
2022/04/10 05:23:30;;;;;;;10.25;3.78;;;3.80;75.50;;;;;;4897791;29;20048;-84
2022/04/10 05:25:57;;;;;;;8.55;3.65;;;3.80;75.60;;;;;;4882716;29;20057;-85
2022/04/10 05:28:24;;;;;;;13.57;4.20;;;3.70;75.60;;;;;;4886105;29;20170;-85
2022/04/10 05:30:51;;;;;;;10.93;4.30;;;3.70;75.60;;;;;;4886598;29;20116;-84
2022/04/10 05:33:18;;;;;;;9.20;3.70;;;3.80;75.70;;;;;;4886863;29;20100;-85
2022/04/10 05:35:47;;;;;;;9.07;3.95;;;3.70;75.70;;;;;;4886052;29;20107;-85
2022/04/10 05:38:14;;;;;;;11.48;3.92;;;3.70;75.70;;;;;;4882401;29;20048;-85
2022/04/10 05:40:40;;;;;;;10.63;4.03;;;3.70;75.70;;;;;;4883838;29;20112;-84
2022/04/10 05:43:07;;;;;;;12.05;4.50;;;3.70;75.70;;;;;;4886556;29;20049;-85
2022/04/10 05:45:34;;;;;;;12.55;4.82;;;3.70;75.70;;;;;;4886461;29;20048;-84
2022/04/10 05:48:01;;;;;;;9.45;4.47;;;3.70;75.80;;;;;;4886653;29;20048;-84
2022/04/10 05:50:28;;;;;;;8.65;5.10;;;3.70;75.70;;;;;;4887958;29;20475;-84
2022/04/10 05:52:55;;;;;;;8.95;5.05;;;3.80;75.80;;;;;;4895134;29;20100;-84
2022/04/10 05:55:24;;;;;;;10.70;5.20;;;3.70;75.80;;;;;;4885327;29;20471;-84
2022/04/10 05:57:51;;;;;;;13.65;5.70;;;3.70;75.80;;;;;;4885818;29;20506;-84
2022/04/10 06:00:23;;;;;;;10.75;4.80;;;3.70;75.80;;;;;;4886229;29;20045;-84
2022/04/10 06:02:51;;;;;;;10.98;5.13;;;3.70;75.90;;;;;;4887312;29;20049;-84
2022/04/10 06:05:19;;;;;;;12.20;5.22;;;3.80;75.90;;;;;;4882075;29;20048;-84
2022/04/10 06:07:46;;;;;;;9.15;4.93;;;3.80;75.90;;;;;;4893410;29;20523;-85
2022/04/10 06:10:14;;;;;;;11.63;5.45;;;3.80;75.90;;;;;;4886171;29;20425;-84
2022/04/10 06:12:41;;;;;;;11.60;4.88;;;3.80;76.00;;;;;;4885601;29;20065;-84
2022/04/10 06:15:09;;;;;;;12.82;5.20;;;3.80;76.00;;;;;;4885866;29;20550;-84
2022/04/10 06:17:36;;;;;;;9.38;4.60;;;3.80;76.00;;;;;;4884177;29;20040;-83
2022/04/10 06:20:03;;;;;;;8.23;4.80;;;3.80;76.00;;;;;;4881431;29;20057;-85
2022/04/10 06:22:30;;;;;;;8.73;4.95;;;3.80;76.10;;;;;;4882595;29;20118;-84
2022/04/10 06:24:57;;;;;;;9.02;4.47;;;3.90;76.10;;;;;;4887846;29;20127;-84
2022/04/10 06:27:24;;;;;;;11.20;4.90;;;3.90;76.20;;;;;;4897886;29;20048;-83
2022/04/10 06:29:51;;;;;;;9.93;4.65;;;3.90;76.20;;;;;;4906515;29;20669;-83
2022/04/10 06:32:18;;;;;;;10.82;4.93;;;3.90;76.30;;;;;;4891331;29;20051;-84
2022/04/10 06:34:45;;;;;;;12.32;4.88;;;3.90;76.30;;;;;;4892869;29;20048;-84
2022/04/10 06:37:14;;;;;;;15.98;5.15;;;3.90;76.40;;;;;;4885416;29;20045;-84
2022/04/10 06:39:41;;;;;;;11.48;4.70;;;3.90;76.40;;;;;;4885713;29;20056;-84
2022/04/10 06:42:09;;;;;;;10.25;4.82;;;4.00;76.50;;;;;;4885270;29;20391;-83
2022/04/10 06:44:37;;;;;;;10.52;4.75;;;4.00;76.50;;;;;;4892545;29;20068;-83
2022/04/10 06:47:04;;;;;;;11.10;4.93;;;4.00;76.60;;;;;;4896179;29;20510;-83
2022/04/10 06:49:31;;;;;;;8.38;4.82;;;4.00;76.60;;;;;;4884013;29;20181;-83
2022/04/10 06:51:58;;;;;;;14.00;5.35;;;4.00;76.70;;;;;;4885430;29;20049;-83
2022/04/10 06:54:25;;;;;;;13.48;5.03;;;4.00;76.80;;;;;;4885396;29;20053;-84
2022/04/10 06:56:52;;;;;;;11.60;4.95;;;4.10;76.90;;;;;;4883911;29;20052;-83
2022/04/10 06:59:19;;;;;;;9.95;4.85;;;4.20;77.00;;;;;;4892472;29;20578;-83
2022/04/10 07:01:46;;;;;;;11.57;5.28;;;4.20;77.00;;;;;;4896803;29;20069;-83
2022/04/10 07:04:13;;;;;;;18.08;5.65;;;4.20;77.20;;;;;;4892812;29;20111;-84
2022/04/10 07:06:46;;;;;;;11.52;5.53;;;4.30;77.30;;;;;;4892534;29;20055;-84
2022/04/10 07:09:16;;;;;;;10.13;5.40;;;4.30;77.40;;;;;;4892579;29;20526;-83
2022/04/10 07:11:44;;;;;;;14.25;5.15;;;4.40;77.50;;;;;;4893704;29;20120;-83
2022/04/10 07:14:11;;;;;;;10.10;5.30;;;4.40;77.60;;;;;;4893211;29;20049;-83
2022/04/10 07:16:38;;;;;;;11.75;5.72;;;4.50;77.70;;;;;;4895614;29;20477;-84
2022/04/10 07:19:06;;;;;;;15.30;5.45;;;4.50;77.90;;;;;;4892340;29;20049;-83
2022/04/10 07:24:18;;;;;;;13.88;5.45;;;4.60;78.00;;;;;;4893633;29;20454;-83
2022/04/10 07:26:45;;;;;;;12.80;5.78;;;4.70;78.10;;;;;;4893306;29;20057;-83
2022/04/10 07:29:12;;;;;;;10.32;5.10;;;4.70;78.20;;;;;;4893277;29;20045;-83
2022/04/10 07:31:40;;;;;;;13.82;5.53;;;4.80;78.20;;;;;;4895815;29;20057;-83
2022/04/10 07:34:07;;;;;;;14.45;5.65;;;4.90;78.20;;;;;;4893843;29;20052;-83
2022/04/10 07:36:34;;;;;;;11.68;5.20;;;4.90;78.30;;;;;;4892156;29;20502;-84
2022/04/10 07:39:01;;;;;;;11.70;5.10;;;4.90;78.40;;;;;;4892378;29;20059;-84
2022/04/10 07:41:28;;;;;;;14.82;5.95;;;5.10;78.50;;;;;;4893854;29;20052;-83
2022/04/10 07:43:55;;;;;;;12.80;5.95;;;5.10;78.60;;;;;;4895261;29;20052;-83
2022/04/10 07:49:08;;;;;;;14.48;5.70;;;5.30;78.80;;;;;;4895551;29;20048;-83
2022/04/10 07:51:35;;;;;;;13.05;5.60;;;5.40;78.90;;;;;;4895607;29;20048;-83
2022/04/10 07:54:02;;;;;;;14.60;5.32;;;5.50;78.90;;;;;;4895154;29;20104;-83
2022/04/10 07:56:29;;;;;;;11.07;5.53;;;5.50;79.00;;;;;;4895595;29;20049;-84
2022/04/10 07:58:56;;;;;;;15.73;5.88;;;5.60;79.10;;;;;;4897613;29;20049;-84
2022/04/10 08:01:23;;;;;;;12.13;5.75;;;5.70;79.00;;;;;;4897308;29;20056;-83
2022/04/10 08:03:52;;;;;;;23.08;6.03;;;5.80;79.10;;;;;;4898338;29;20060;-84
2022/04/10 08:06:19;;;;;;;12.93;5.35;;;5.90;79.10;;;;;;4894857;29;20052;-84
2022/04/10 08:08:46;;;;;;;11.55;5.63;;;6.00;79.10;;;;;;4895171;29;20045;-84
2022/04/10 08:11:13;;;;;;;13.25;5.65;;;6.10;79.20;;;;;;4896189;29;20053;-83
2022/04/10 08:13:40;;;;;;;13.77;6.15;;;6.20;79.20;;;;;;4897956;29;20116;-84
2022/04/10 08:16:07;;;;;;;11.63;5.95;;;6.30;79.20;;;;;;4894915;29;20048;-84
2022/04/10 08:18:34;;;;;;;12.07;5.80;;;6.40;79.20;;;;;;4895205;29;20044;-84
2022/04/10 08:21:00;;;;;;;9.60;5.45;;;6.50;79.30;;;;;;4894298;29;20055;-84
2022/04/10 08:23:27;;;;;;;13.05;5.40;;;6.60;79.30;;;;;;4894955;29;20045;-84
2022/04/10 08:25:54;;;;;;;13.77;5.53;;;6.60;79.30;;;;;;4897724;29;20056;-84
2022/04/10 08:28:21;;;;;;;15.73;5.43;;;6.80;79.30;;;;;;4897358;29;20060;-84
2022/04/10 08:30:48;;;;;;;12.85;5.40;;;6.90;79.20;;;;;;4895109;29;20095;-84
2022/04/10 08:33:15;;;;;;;14.57;5.13;;;7.00;79.20;;;;;;4894762;29;20048;-83
2022/04/10 08:35:42;;;;;;;16.00;5.18;;;7.10;79.10;;;;;;4894575;29;20053;-84
2022/04/10 08:38:09;;;;;;;12.88;5.25;;;7.20;79.10;;;;;;4895902;29;20052;-83
2022/04/10 08:40:36;;;;;;;10.93;5.43;;;7.30;79.10;;;;;;4897512;29;20589;-84
2022/04/10 08:43:04;;;;;;;11.52;5.25;;;7.40;79.00;;;;;;4894198;29;20577;-84
2022/04/10 08:45:31;;;;;;;14.23;4.90;;;7.50;78.90;;;;;;4894368;29;20510;-84
2022/04/10 08:47:59;;;;;;;19.15;6.10;;;7.60;78.80;;;;;;4894309;29;20441;-84
2022/04/10 08:50:26;;;;;;;12.20;5.40;;;7.70;78.80;;;;;;4893251;29;20049;-84
2022/04/10 08:52:57;;;;;;;13.68;5.97;;;7.90;78.70;;;;;;4896670;29;20057;-84
2022/04/10 08:55:25;;;;;;;13.25;5.22;;;7.90;78.70;;;;;;4894715;29;20463;-85
2022/04/10 08:57:51;;;;;;;10.55;4.90;;;8.00;78.70;;;;;;4894372;29;20459;-84
2022/04/10 09:00:19;;;;;;;11.43;4.82;;;8.10;78.60;;;;;;4894479;29;20055;-85
2022/04/10 09:02:48;;;;;;;14.30;5.05;;;8.30;78.40;;;;;;4894543;29;20167;-85
2022/04/10 09:05:23;;;;;;;11.30;4.65;;;8.40;78.30;;;;;;4894967;29;20096;-85
2022/04/10 09:08:13;;;;;;;12.65;5.13;;;8.50;78.20;;;;;;4894020;29;20095;-85
2022/04/10 09:10:52;;;;;;;11.00;5.25;;;8.60;78.00;;;;;;4897777;29;20469;-85
2022/04/10 09:13:33;;;;;;;13.52;5.38;;;8.70;77.90;;;;;;4894809;29;20533;-85
2022/04/10 09:16:14;;;;;;;14.23;5.07;;;8.90;77.80;;;;;;4894057;29;20063;-85
2022/04/10 09:19:00;;;;;;;10.50;4.47;;;8.90;77.60;;;;;;4893984;29;20056;-85
2022/04/10 09:21:29;;;;;;;11.43;4.63;;;9.00;77.50;;;;;;4893883;29;20051;-85
2022/04/10 09:24:04;;;;;;;10.90;4.97;;;9.20;77.40;;;;;;4894241;29;20103;-85
2022/04/10 09:26:43;;;;;;;14.00;5.35;;;9.30;77.30;;;;;;4894147;29;20052;-85
2022/04/10 09:29:11;;;;;;;12.50;4.40;;;9.40;77.10;;;;;;4895187;29;20049;-85
2022/04/10 09:31:38;;;;;;;11.45;4.70;;;9.60;76.90;;;;;;4897251;29;20060;-86
2022/04/10 09:34:08;;;;;;;13.18;4.72;;;9.70;76.60;;;;;;4893875;29;20084;-85
2022/04/10 09:36:42;;;;;;;11.20;4.68;;;9.80;76.40;;;;;;4889381;29;20100;-85
2022/04/10 09:39:13;;;;;;;7.70;4.18;;;9.90;76.10;;;;;;4886636;29;20044;-85
2022/04/10 09:41:42;;;;;;;9.38;4.50;;;9.90;75.90;;;;;;4894062;29;20128;-84
2022/04/10 09:44:13;;;;;;;9.45;4.90;;;10.00;75.70;;;;;;4895314;29;20060;-85
2022/04/10 09:46:41;;;;;;;13.93;5.20;;;10.20;75.40;;;;;;4896771;29;20171;-86
2022/04/10 09:49:12;;;;;;;17.60;5.50;;;10.20;75.00;;;;;;4893422;29;20506;-86
2022/04/10 09:52:19;;;;;;;13.68;4.55;;;10.30;74.60;;;;;;4893277;29;20044;-86
2022/04/10 09:54:47;;;;;;;11.32;4.32;;;10.40;74.10;;;;;;4838221;29;20057;-85
2022/04/10 09:57:16;;;;;;;9.38;4.35;;;10.50;73.80;;;;;;4838308;29;20050;-86
2022/04/10 09:59:51;;;;;;;10.55;4.60;;;10.60;73.50;;;;;;4838434;29;20045;-85
2022/04/10 10:02:20;;;;;;;13.35;4.68;;;10.70;73.20;;;;;;4824165;29;20072;-85
2022/04/10 10:04:48;;;;;;;11.52;4.18;;;10.70;73.00;;;;;;4835411;29;20150;-85
2022/04/10 10:07:23;;;;;;;14.20;4.63;;;10.70;72.70;;;;;;4837887;29;20050;-85
2022/04/10 10:09:49;;;;;;;9.57;3.58;;;10.80;72.50;;;;;;4838341;29;20057;-85
2022/04/10 10:12:17;;;;;;;15.05;4.57;;;10.80;72.40;;;;;;4837931;29;20107;-85
2022/04/10 10:14:44;;;;;;;9.98;3.97;;;10.80;72.10;;;;;;4838128;29;20065;-86
2022/04/10 10:17:12;;;;;;;10.35;4.18;;;10.90;72.00;;;;;;4838040;29;20860;-85
2022/04/10 10:19:41;;;;;;;9.30;3.88;;;10.90;71.80;;;;;;4838997;29;20102;-85
2022/04/10 10:22:12;;;;;;;8.60;4.00;;;10.90;71.70;;;;;;4838054;29;20596;-85
2022/04/10 10:25:00;;;;;;;10.20;4.05;;;11.00;71.60;;;;;;4842710;29;20058;-86
2022/04/10 10:27:50;;;;;;;11.82;4.05;;;11.10;71.40;;;;;;4888340;29;20455;-86
2022/04/10 10:30:35;;;;;;;11.95;4.15;;;11.20;71.10;;;;;;4894499;29;20048;-85
2022/04/10 10:33:21;;;;;;;8.82;3.45;;;11.20;70.80;;;;;;4894262;29;20490;-86
2022/04/10 10:35:59;;;;;;;10.70;3.65;;;11.40;70.50;;;;;;4894408;29;20100;-87
2022/04/10 10:38:31;;;;;;;12.00;3.50;;;11.50;70.10;;;;;;4885406;29;20097;-86
2022/04/10 10:41:28;;;;;;;14.45;3.85;;;11.60;69.80;;;;;;4894856;29;20558;-85
2022/04/10 10:43:56;;;;;;;11.85;4.20;;;11.70;69.30;;;;;;4892882;29;20052;-86
2022/04/10 10:46:32;;;;;;;10.98;3.97;;;11.80;68.90;;;;;;4893997;29;20116;-84
2022/04/10 10:49:11;;;;;;;18.55;4.53;;;11.90;68.50;;;;;;4894079;29;20056;-84
2022/04/10 10:51:41;;;;;;;11.52;3.55;;;12.00;68.00;;;;;;4894539;29;20053;-84
2022/04/10 10:54:11;;;;;;;12.32;4.13;;;12.10;67.50;;;;;;4892886;29;20045;-84
2022/04/10 10:56:41;;;;;;;8.65;3.22;;;12.20;67.10;;;;;;4892870;29;20053;-84
2022/04/10 10:59:22;;;;;;;8.63;3.15;;;12.30;66.90;;;;;;4894363;29;20051;-85
2022/04/10 11:02:07;;;;;;;9.10;3.30;;;12.30;66.70;;;;;;4892821;29;20056;-86
2022/04/10 11:04:41;;;;;;;9.00;3.70;;;12.40;66.50;;;;;;4895106;29;20112;-86
2022/04/10 11:07:11;;;;;;;9.05;3.38;;;12.40;66.20;;;;;;4892871;29;20468;-86
2022/04/10 11:09:58;;;;;;;10.88;3.42;;;12.50;65.90;;;;;;4892867;29;20052;-85
2022/04/10 11:12:31;;;;;;;7.97;3.30;;;12.60;65.60;;;;;;4892574;29;20066;-87
2022/04/10 11:15:02;;;;;;;9.25;2.97;;;12.70;65.30;;;;;;4892647;29;20045;-86
2022/04/10 11:17:32;;;;;;;7.47;3.08;;;12.80;65.10;;;;;;4892675;29;20574;-85
2022/04/10 11:20:03;;;;;;;8.65;3.15;;;12.90;65.00;;;;;;4897590;29;20109;-86
2022/04/10 11:22:39;;;;;;;10.23;2.78;;;12.90;64.80;;;;;;4898351;29;20052;-86
2022/04/10 11:25:09;;;;;;;8.70;2.90;;;13.00;64.60;;;;;;4896043;29;20104;-86
2022/04/10 11:27:50;;;;;;;7.20;3.22;;;13.00;64.30;;;;;;4896160;29;20049;-86
2022/04/10 11:30:40;;;;;;;8.60;3.00;;;13.10;64.00;;;;;;4896103;29;20053;-86
2022/04/10 11:33:13;;;;;;;12.50;3.10;;;13.20;63.60;;;;;;4895800;29;20048;-86
2022/04/10 11:35:43;;;;;;;;;;;13.30;63.30;;;;;;4896542;29;20708;-86
2022/04/10 11:38:12;;;;;;;8.98;3.20;;;13.40;63.00;;;;;;4897561;29;19982;-86
2022/04/10 11:40:41;;;;;;;9.20;2.83;;;13.40;62.60;;;;;;4899537;29;20064;-87
2022/04/10 11:43:08;;;;;;;7.82;2.70;;;13.40;62.10;;;;;;4895758;29;20053;-86
2022/04/10 11:45:36;;;;;;;6.05;2.60;;;13.40;61.70;;;;;;4895812;29;20060;-86
2022/04/10 11:48:05;;;;;;;9.60;3.13;;;13.40;61.20;;;;;;4895369;29;20120;-87
2022/04/10 11:50:32;;;;;;;8.35;2.70;;;13.50;60.80;;;;;;4895812;29;20049;-86
2022/04/10 11:53:11;;;;;;;8.20;2.75;;;13.50;60.60;;;;;;4898294;29;20052;-86
2022/04/10 11:55:45;;;;;;;7.32;3.20;;;13.50;60.30;;;;;;4898514;29;20445;-86
2022/04/10 11:58:21;;;;;;;8.65;2.83;;;13.50;60.10;;;;;;4896952;29;20522;-87
2022/04/10 12:00:52;;;;;;;8.43;3.03;;;13.40;60.00;;;;;;4895199;29;20506;-87
2022/04/10 12:03:21;;;;;;;9.57;2.60;;;13.50;59.80;;;;;;4895506;29;20083;-87
2022/04/10 12:05:50;;;;;;;9.38;2.50;;;13.40;59.50;;;;;;4895477;29;20044;-88
2022/04/10 12:08:17;;;;;;;10.55;2.60;;;13.40;59.30;;;;;;4895817;29;20110;-88
2022/04/10 12:10:58;;;;;;;8.13;2.65;;;13.40;59.10;;;;;;4899130;29;20060;-88
2022/04/10 12:13:42;;;;;;;9.82;2.88;;;13.40;59.20;;;;;;4893938;29;20151;-86
2022/04/10 12:16:17;;;;;;;8.30;2.20;;;13.40;59.10;;;;;;4894106;29;20517;-87
2022/04/10 12:18:52;;;;;;;7.07;2.38;;;13.30;58.80;;;;;;4895378;29;20593;-86
2022/04/10 12:21:21;;;;;;;7.85;2.45;;;13.30;58.70;;;;;;4895257;29;20048;-88
2022/04/10 12:24:04;;;;;;;7.70;2.55;;;13.40;58.60;;;;;;4894908;29;20069;-86
2022/04/10 12:26:35;;;;;;;10.53;2.60;;;13.40;58.30;;;;;;4880911;29;20044;-86
2022/04/10 12:29:03;;;;;;;8.23;2.90;;;13.40;58.30;;;;;;4897163;29;20055;-87
2022/04/10 12:31:32;;;;;;;8.43;2.92;;;13.40;58.50;;;;;;4895784;29;20059;-86
2022/04/10 12:34:00;;;;;;;11.82;2.55;;;13.40;58.50;;;;;;4894878;29;20095;-86
2022/04/10 12:36:28;;;;;;;8.38;2.78;;;13.40;58.40;;;;;;4895006;29;20048;-87
2022/04/10 12:38:55;;;;;;;7.43;2.33;;;13.40;58.30;;;;;;4894932;29;20048;-87
2022/04/10 12:41:29;;;;;;;9.20;2.78;;;13.50;58.20;;;;;;4894927;29;20055;-87
2022/04/10 12:44:03;;;;;;;9.77;2.10;;;13.50;58.10;;;;;;4897307;29;20502;-87
2022/04/10 12:46:38;;;;;;;5.15;1.85;;;13.60;58.00;;;;;;4896758;29;20048;-86
2022/04/10 12:49:18;;;;;;;8.00;2.58;;;13.70;57.90;;;;;;4894875;29;20056;-87
2022/04/10 12:51:53;;;;;;;8.93;2.08;;;13.70;57.70;;;;;;4894877;29;20064;-86
2022/04/10 12:54:40;;;;;;;6.10;2.22;;;13.80;57.50;;;;;;4894614;29;20108;-87
2022/04/10 12:57:11;;;;;;;4.78;1.77;;;13.90;57.30;;;;;;4894621;29;20623;-86
2022/04/10 12:59:50;;;;;;;10.95;2.50;;;13.90;57.00;;;;;;4897085;29;20111;-86
2022/04/10 13:02:26;;;;;;;9.68;2.22;;;13.90;56.50;;;;;;4880291;29;20049;-87
2022/04/10 13:05:05;;;;;;;6.88;2.28;;;14.00;56.10;;;;;;4893291;29;20044;-86
2022/04/10 13:07:32;;;;;;;12.68;2.97;;;14.10;55.80;;;;;;4896752;29;20061;-87